sensor_id;sensor_type;location;lat;lon;timestamp;pressure;altitude;pressure_sealevel;temperature;humidity
20350;BME280;10332;50.208;18.988;2023-05-23T00:01:11;97775.22;;;15.46;72.04
20350;BME280;10332;50.208;18.988;2023-05-23T00:03:40;97777.00;;;15.45;72.19
20350;BME280;10332;50.208;18.988;2023-05-23T00:06:08;97778.56;;;15.38;72.34
20350;BME280;10332;50.208;18.988;2023-05-23T00:08:36;97770.78;;;15.37;72.52
20350;BME280;10332;50.208;18.988;2023-05-23T00:11:03;97758.75;;;15.34;72.57
20350;BME280;10332;50.208;18.988;2023-05-23T00:13:31;97764.31;;;15.31;72.52
20350;BME280;10332;50.208;18.988;2023-05-23T00:16:01;97761.69;;;15.31;72.69
20350;BME280;10332;50.208;18.988;2023-05-23T00:18:28;97761.28;;;15.26;72.66
20350;BME280;10332;50.208;18.988;2023-05-23T00:20:56;97758.78;;;15.24;72.96
20350;BME280;10332;50.208;18.988;2023-05-23T00:23:25;97761.69;;;15.31;72.78
20350;BME280;10332;50.208;18.988;2023-05-23T00:25:56;97760.31;;;15.27;72.67
20350;BME280;10332;50.208;18.988;2023-05-23T00:28:24;97750.06;;;15.24;72.54
20350;BME280;10332;50.208;18.988;2023-05-23T00:30:52;97747.59;;;15.22;72.66
20350;BME280;10332;50.208;18.988;2023-05-23T00:33:19;97751.19;;;15.21;72.37
20350;BME280;10332;50.208;18.988;2023-05-23T00:35:50;97756.47;;;15.21;72.55
20350;BME280;10332;50.208;18.988;2023-05-23T00:38:17;97751.47;;;15.18;72.24
20350;BME280;10332;50.208;18.988;2023-05-23T00:40:45;97755.63;;;15.21;72.13
20350;BME280;10332;50.208;18.988;2023-05-23T00:43:13;97758.94;;;15.23;72.16
20350;BME280;10332;50.208;18.988;2023-05-23T00:45:40;97762.84;;;15.19;71.88
20350;BME280;10332;50.208;18.988;2023-05-23T00:48:08;97755.06;;;15.17;72.40
20350;BME280;10332;50.208;18.988;2023-05-23T00:50:36;97757.44;;;15.20;72.10
20350;BME280;10332;50.208;18.988;2023-05-23T00:53:04;97749.81;;;15.17;72.23
20350;BME280;10332;50.208;18.988;2023-05-23T00:55:32;97756.03;;;15.16;72.07
20350;BME280;10332;50.208;18.988;2023-05-23T00:57:59;97750.38;;;15.11;72.38
20350;BME280;10332;50.208;18.988;2023-05-23T01:00:27;97750.81;;;15.07;72.44
20350;BME280;10332;50.208;18.988;2023-05-23T01:02:55;97760.78;;;15.03;72.95
20350;BME280;10332;50.208;18.988;2023-05-23T01:05:23;97758.97;;;15.03;72.70
20350;BME280;10332;50.208;18.988;2023-05-23T01:07:51;97757.03;;;15.05;72.87
20350;BME280;10332;50.208;18.988;2023-05-23T01:10:26;97760.06;;;14.91;73.22
20350;BME280;10332;50.208;18.988;2023-05-23T01:15:39;97750.56;;;14.81;73.72
20350;BME280;10332;50.208;18.988;2023-05-23T01:18:18;97750.97;;;14.76;73.95
20350;BME280;10332;50.208;18.988;2023-05-23T01:20:54;97753.03;;;14.72;73.95
20350;BME280;10332;50.208;18.988;2023-05-23T01:23:35;97752.06;;;14.64;74.09
20350;BME280;10332;50.208;18.988;2023-05-23T01:29:16;97758.44;;;14.52;74.18
20350;BME280;10332;50.208;18.988;2023-05-23T01:31:52;97749.72;;;14.51;74.20
20350;BME280;10332;50.208;18.988;2023-05-23T01:34:21;97750.41;;;14.53;74.32
20350;BME280;10332;50.208;18.988;2023-05-23T01:36:53;97740.59;;;14.55;74.27
20350;BME280;10332;50.208;18.988;2023-05-23T01:39:23;97743.94;;;14.57;74.06
20350;BME280;10332;50.208;18.988;2023-05-23T01:41:52;97743.38;;;14.54;74.04
20350;BME280;10332;50.208;18.988;2023-05-23T01:44:20;97739.22;;;14.51;73.81
20350;BME280;10332;50.208;18.988;2023-05-23T01:46:48;97742.41;;;14.55;74.31
20350;BME280;10332;50.208;18.988;2023-05-23T01:49:17;97743.50;;;14.52;74.45
20350;BME280;10332;50.208;18.988;2023-05-23T01:51:46;97739.88;;;14.43;74.50
20350;BME280;10332;50.208;18.988;2023-05-23T01:54:15;97749.97;;;14.38;74.68
20350;BME280;10332;50.208;18.988;2023-05-23T01:56:47;97737.78;;;14.37;74.78
20350;BME280;10332;50.208;18.988;2023-05-23T01:59:15;97741.66;;;14.33;74.58
20350;BME280;10332;50.208;18.988;2023-05-23T02:01:43;97743.19;;;14.36;74.67
20350;BME280;10332;50.208;18.988;2023-05-23T02:04:10;97749.25;;;14.36;74.47
20350;BME280;10332;50.208;18.988;2023-05-23T02:06:38;97744.28;;;14.33;74.62
20350;BME280;10332;50.208;18.988;2023-05-23T02:09:05;97742.63;;;14.32;74.75
20350;BME280;10332;50.208;18.988;2023-05-23T02:11:34;97743.47;;;14.33;74.50
20350;BME280;10332;50.208;18.988;2023-05-23T02:14:01;97740.97;;;14.31;74.41
20350;BME280;10332;50.208;18.988;2023-05-23T02:16:29;97742.63;;;14.32;74.38
20350;BME280;10332;50.208;18.988;2023-05-23T02:18:56;97728.00;;;14.30;74.42
20350;BME280;10332;50.208;18.988;2023-05-23T02:21:25;97734.47;;;14.26;74.48
20350;BME280;10332;50.208;18.988;2023-05-23T02:23:52;97735.44;;;14.25;74.59
20350;BME280;10332;50.208;18.988;2023-05-23T02:26:19;97733.09;;;14.22;74.50
20350;BME280;10332;50.208;18.988;2023-05-23T02:28:47;97729.34;;;14.24;74.38
20350;BME280;10332;50.208;18.988;2023-05-23T02:31:15;97740.81;;;14.23;74.49
20350;BME280;10332;50.208;18.988;2023-05-23T02:33:43;97732.94;;;14.23;74.87
20350;BME280;10332;50.208;18.988;2023-05-23T02:36:11;97735.13;;;14.18;74.85
20350;BME280;10332;50.208;18.988;2023-05-23T02:38:38;97740.22;;;14.10;75.19
20350;BME280;10332;50.208;18.988;2023-05-23T02:41:05;97732.19;;;14.02;75.20
20350;BME280;10332;50.208;18.988;2023-05-23T02:43:33;97732.34;;;14.00;75.83
20350;BME280;10332;50.208;18.988;2023-05-23T02:46:00;97735.38;;;13.96;75.77
20350;BME280;10332;50.208;18.988;2023-05-23T02:48:28;97733.72;;;13.95;76.06
20350;BME280;10332;50.208;18.988;2023-05-23T02:50:55;97736.88;;;13.88;76.09
20350;BME280;10332;50.208;18.988;2023-05-23T02:53:23;97730.25;;;13.84;76.10
20350;BME280;10332;50.208;18.988;2023-05-23T02:55:50;97728.84;;;13.80;75.94
20350;BME280;10332;50.208;18.988;2023-05-23T02:58:18;97726.91;;;13.82;75.81
20350;BME280;10332;50.208;18.988;2023-05-23T03:00:47;97725.94;;;13.83;75.64
20350;BME280;10332;50.208;18.988;2023-05-23T03:03:14;97729.28;;;13.85;75.72
20350;BME280;10332;50.208;18.988;2023-05-23T03:05:43;97733.28;;;13.89;75.79
20350;BME280;10332;50.208;18.988;2023-05-23T03:08:10;97728.63;;;13.93;75.73
20350;BME280;10332;50.208;18.988;2023-05-23T03:10:38;97730.66;;;13.89;75.57
20350;BME280;10332;50.208;18.988;2023-05-23T03:13:05;97732.59;;;13.87;75.56
20350;BME280;10332;50.208;18.988;2023-05-23T03:15:33;97724.88;;;13.86;75.25
20350;BME280;10332;50.208;18.988;2023-05-23T03:18:00;97727.91;;;13.91;75.41
20350;BME280;10332;50.208;18.988;2023-05-23T03:20:28;97715.34;;;13.95;75.58
20350;BME280;10332;50.208;18.988;2023-05-23T03:22:55;97719.50;;;13.97;75.54
20350;BME280;10332;50.208;18.988;2023-05-23T03:25:23;97716.88;;;13.97;75.53
20350;BME280;10332;50.208;18.988;2023-05-23T03:27:51;97719.34;;;13.99;75.46
20350;BME280;10332;50.208;18.988;2023-05-23T03:30:19;97708.72;;;14.00;75.43
20350;BME280;10332;50.208;18.988;2023-05-23T03:32:47;97707.63;;;14.03;75.55
20350;BME280;10332;50.208;18.988;2023-05-23T03:35:14;97719.78;;;14.04;75.46
20350;BME280;10332;50.208;18.988;2023-05-23T03:37:42;97708.47;;;14.03;75.44
20350;BME280;10332;50.208;18.988;2023-05-23T03:40:09;97713.72;;;14.03;75.32
20350;BME280;10332;50.208;18.988;2023-05-23T03:42:38;97710.13;;;14.04;75.40
20350;BME280;10332;50.208;18.988;2023-05-23T03:45:06;97722.69;;;14.10;75.25
20350;BME280;10332;50.208;18.988;2023-05-23T03:47:33;97712.47;;;14.07;75.33
20350;BME280;10332;50.208;18.988;2023-05-23T03:50:01;97711.94;;;14.13;75.22
20350;BME280;10332;50.208;18.988;2023-05-23T03:52:28;97699.50;;;14.15;75.38
20350;BME280;10332;50.208;18.988;2023-05-23T03:54:56;97700.59;;;14.13;75.34
20350;BME280;10332;50.208;18.988;2023-05-23T03:57:23;97701.16;;;14.16;75.41
20350;BME280;10332;50.208;18.988;2023-05-23T03:59:51;97699.22;;;14.18;75.33
20350;BME280;10332;50.208;18.988;2023-05-23T04:02:18;97707.38;;;14.25;75.20
20350;BME280;10332;50.208;18.988;2023-05-23T04:04:47;97701.84;;;14.28;74.84
20350;BME280;10332;50.208;18.988;2023-05-23T04:07:14;97692.75;;;14.32;75.23
20350;BME280;10332;50.208;18.988;2023-05-23T04:09:42;97702.13;;;14.35;75.04
20350;BME280;10332;50.208;18.988;2023-05-23T04:12:10;97705.34;;;14.38;74.88
20350;BME280;10332;50.208;18.988;2023-05-23T04:14:38;97696.19;;;14.42;74.73
20350;BME280;10332;50.208;18.988;2023-05-23T04:17:05;97699.81;;;14.51;75.08
20350;BME280;10332;50.208;18.988;2023-05-23T04:19:35;97699.53;;;14.54;74.62
20350;BME280;10332;50.208;18.988;2023-05-23T04:22:03;97700.09;;;14.58;74.84
20350;BME280;10332;50.208;18.988;2023-05-23T04:24:30;97706.72;;;14.62;74.65
20350;BME280;10332;50.208;18.988;2023-05-23T04:26:58;97696.63;;;14.67;74.64
20350;BME280;10332;50.208;18.988;2023-05-23T04:29:25;97701.88;;;14.76;74.80
20350;BME280;10332;50.208;18.988;2023-05-23T04:31:53;97699.09;;;14.78;74.89
20350;BME280;10332;50.208;18.988;2023-05-23T04:34:21;97695.63;;;14.87;75.01
20350;BME280;10332;50.208;18.988;2023-05-23T04:36:48;97705.84;;;14.90;75.12
20350;BME280;10332;50.208;18.988;2023-05-23T04:39:16;97704.19;;;14.89;75.41
20350;BME280;10332;50.208;18.988;2023-05-23T04:41:43;97699.22;;;14.96;75.33
20350;BME280;10332;50.208;18.988;2023-05-23T04:44:11;97700.56;;;15.10;75.39
20350;BME280;10332;50.208;18.988;2023-05-23T04:46:40;97694.19;;;15.12;75.44
20350;BME280;10332;50.208;18.988;2023-05-23T04:49:08;97696.22;;;15.18;75.34
20350;BME280;10332;50.208;18.988;2023-05-23T04:51:36;97695.97;;;15.21;75.44
20350;BME280;10332;50.208;18.988;2023-05-23T04:54:04;97695.25;;;15.29;75.31
20350;BME280;10332;50.208;18.988;2023-05-23T04:56:32;97690.81;;;15.29;75.32
20350;BME280;10332;50.208;18.988;2023-05-23T04:58:59;97691.19;;;15.34;74.90
20350;BME280;10332;50.208;18.988;2023-05-23T05:01:27;97689.81;;;15.40;74.94
20350;BME280;10332;50.208;18.988;2023-05-23T05:03:57;97688.25;;;15.47;74.81
20350;BME280;10332;50.208;18.988;2023-05-23T05:06:25;97683.78;;;15.57;74.31
20350;BME280;10332;50.208;18.988;2023-05-23T05:08:53;97677.69;;;15.57;74.15
20350;BME280;10332;50.208;18.988;2023-05-23T05:11:20;97683.34;;;15.62;74.30
20350;BME280;10332;50.208;18.988;2023-05-23T05:13:48;97683.84;;;15.75;73.95
20350;BME280;10332;50.208;18.988;2023-05-23T05:16:15;97685.88;;;15.81;73.32
20350;BME280;10332;50.208;18.988;2023-05-23T05:18:43;97686.69;;;15.92;73.09
20350;BME280;10332;50.208;18.988;2023-05-23T05:21:10;97685.53;;;15.94;72.99
20350;BME280;10332;50.208;18.988;2023-05-23T05:23:38;97670.28;;;15.98;72.67
20350;BME280;10332;50.208;18.988;2023-05-23T05:26:05;97668.94;;;16.11;72.31
20350;BME280;10332;50.208;18.988;2023-05-23T05:28:34;97672.56;;;16.10;72.27
20350;BME280;10332;50.208;18.988;2023-05-23T05:31:01;97671.00;;;16.17;72.30
20350;BME280;10332;50.208;18.988;2023-05-23T05:33:31;97658.50;;;16.20;72.34
20350;BME280;10332;50.208;18.988;2023-05-23T05:36:04;97670.53;;;16.40;71.88
20350;BME280;10332;50.208;18.988;2023-05-23T05:38:32;97671.25;;;16.50;71.03
20350;BME280;10332;50.208;18.988;2023-05-23T05:41:00;97672.81;;;16.61;70.98
20350;BME280;10332;50.208;18.988;2023-05-23T05:43:27;97674.44;;;16.71;70.26
20350;BME280;10332;50.208;18.988;2023-05-23T05:45:55;97677.00;;;16.81;69.53
20350;BME280;10332;50.208;18.988;2023-05-23T05:48:22;97675.69;;;16.85;69.48
20350;BME280;10332;50.208;18.988;2023-05-23T05:50:50;97678.16;;;16.87;69.31
20350;BME280;10332;50.208;18.988;2023-05-23T05:53:17;97675.06;;;16.91;69.58
20350;BME280;10332;50.208;18.988;2023-05-23T05:55:45;97675.53;;;16.87;69.30
20350;BME280;10332;50.208;18.988;2023-05-23T05:58:12;97674.06;;;16.31;71.24
20350;BME280;10332;50.208;18.988;2023-05-23T06:00:39;97670.13;;;16.53;70.97
20350;BME280;10332;50.208;18.988;2023-05-23T06:03:10;97668.53;;;16.78;70.36
20350;BME280;10332;50.208;18.988;2023-05-23T06:05:38;97672.78;;;16.96;69.72
20350;BME280;10332;50.208;18.988;2023-05-23T06:08:06;97674.03;;;17.10;69.74
20350;BME280;10332;50.208;18.988;2023-05-23T06:10:36;97671.75;;;17.15;69.19
20350;BME280;10332;50.208;18.988;2023-05-23T06:13:04;97674.09;;;17.18;69.08
20350;BME280;10332;50.208;18.988;2023-05-23T06:15:31;97665.53;;;17.24;69.11
20350;BME280;10332;50.208;18.988;2023-05-23T06:17:59;97668.91;;;17.43;68.88
20350;BME280;10332;50.208;18.988;2023-05-23T06:20:26;97663.06;;;17.57;68.87
20350;BME280;10332;50.208;18.988;2023-05-23T06:22:55;97669.19;;;17.66;69.01
20350;BME280;10332;50.208;18.988;2023-05-23T06:25:22;97666.97;;;17.87;68.25
20350;BME280;10332;50.208;18.988;2023-05-23T06:27:49;97671.16;;;18.06;68.16
20350;BME280;10332;50.208;18.988;2023-05-23T06:30:17;97660.47;;;18.15;68.02
20350;BME280;10332;50.208;18.988;2023-05-23T06:32:44;97655.31;;;18.14;67.71
20350;BME280;10332;50.208;18.988;2023-05-23T06:35:12;97659.13;;;18.28;67.44
20350;BME280;10332;50.208;18.988;2023-05-23T06:37:39;97655.03;;;18.33;67.46
20350;BME280;10332;50.208;18.988;2023-05-23T06:40:12;97656.00;;;18.49;66.76
20350;BME280;10332;50.208;18.988;2023-05-23T06:42:42;97649.56;;;18.84;66.38
20350;BME280;10332;50.208;18.988;2023-05-23T06:45:10;97647.00;;;19.23;65.34
20350;BME280;10332;50.208;18.988;2023-05-23T06:47:40;97644.50;;;19.77;64.54
20350;BME280;10332;50.208;18.988;2023-05-23T06:50:10;97656.28;;;20.05;63.92
20350;BME280;10332;50.208;18.988;2023-05-23T06:52:37;97643.41;;;20.48;61.77
20350;BME280;10332;50.208;18.988;2023-05-23T06:55:05;97641.28;;;20.81;60.93
20350;BME280;10332;50.208;18.988;2023-05-23T06:57:33;97643.91;;;21.04;59.82
20350;BME280;10332;50.208;18.988;2023-05-23T07:00:00;97643.84;;;21.27;58.68
20350;BME280;10332;50.208;18.988;2023-05-23T07:02:28;97649.78;;;21.44;57.98
20350;BME280;10332;50.208;18.988;2023-05-23T07:04:55;97637.97;;;21.61;58.04
20350;BME280;10332;50.208;18.988;2023-05-23T07:07:23;97638.69;;;21.55;58.29
20350;BME280;10332;50.208;18.988;2023-05-23T07:09:50;97632.66;;;21.61;58.75
20350;BME280;10332;50.208;18.988;2023-05-23T07:12:18;97637.38;;;21.80;58.25
20350;BME280;10332;50.208;18.988;2023-05-23T07:14:45;97634.69;;;21.95;58.07
20350;BME280;10332;50.208;18.988;2023-05-23T07:17:13;97643.88;;;21.93;57.91
20350;BME280;10332;50.208;18.988;2023-05-23T07:19:40;97638.59;;;21.99;57.30
20350;BME280;10332;50.208;18.988;2023-05-23T07:22:08;97637.03;;;22.05;57.50
20350;BME280;10332;50.208;18.988;2023-05-23T07:24:35;97625.94;;;22.01;57.43
20350;BME280;10332;50.208;18.988;2023-05-23T07:27:03;97628.16;;;21.98;57.71
20350;BME280;10332;50.208;18.988;2023-05-23T07:29:30;97628.78;;;22.00;57.59
20350;BME280;10332;50.208;18.988;2023-05-23T07:31:58;97625.78;;;22.03;57.11
20350;BME280;10332;50.208;18.988;2023-05-23T07:34:25;97620.00;;;22.14;56.65
20350;BME280;10332;50.208;18.988;2023-05-23T07:36:54;97625.38;;;22.06;56.95
20350;BME280;10332;50.208;18.988;2023-05-23T07:39:21;97634.78;;;22.02;56.16
20350;BME280;10332;50.208;18.988;2023-05-23T07:41:50;97630.03;;;22.19;56.02
20350;BME280;10332;50.208;18.988;2023-05-23T07:44:18;97621.81;;;22.35;55.78
20350;BME280;10332;50.208;18.988;2023-05-23T07:46:50;97627.13;;;22.56;56.15
20350;BME280;10332;50.208;18.988;2023-05-23T07:49:17;97619.50;;;22.75;55.49
20350;BME280;10332;50.208;18.988;2023-05-23T07:51:45;97623.22;;;22.80;55.23
20350;BME280;10332;50.208;18.988;2023-05-23T07:54:12;97613.72;;;22.92;54.98
20350;BME280;10332;50.208;18.988;2023-05-23T07:56:43;97609.91;;;23.02;55.01
20350;BME280;10332;50.208;18.988;2023-05-23T07:59:10;97607.31;;;23.15;54.83
20350;BME280;10332;50.208;18.988;2023-05-23T08:01:38;97618.88;;;23.29;53.66
20350;BME280;10332;50.208;18.988;2023-05-23T08:04:06;97605.78;;;23.40;52.67
20350;BME280;10332;50.208;18.988;2023-05-23T08:06:34;97611.63;;;23.57;52.55
20350;BME280;10332;50.208;18.988;2023-05-23T08:09:01;97611.53;;;23.85;52.07
20350;BME280;10332;50.208;18.988;2023-05-23T08:11:29;97606.47;;;24.10;51.43
20350;BME280;10332;50.208;18.988;2023-05-23T08:13:56;97611.88;;;24.37;51.11
20350;BME280;10332;50.208;18.988;2023-05-23T08:16:27;97607.59;;;24.55;50.50
20350;BME280;10332;50.208;18.988;2023-05-23T08:18:55;97604.50;;;24.72;50.96
20350;BME280;10332;50.208;18.988;2023-05-23T08:21:23;97610.88;;;24.57;49.10
20350;BME280;10332;50.208;18.988;2023-05-23T08:23:50;97608.41;;;24.76;49.07
20350;BME280;10332;50.208;18.988;2023-05-23T08:26:18;97617.19;;;24.96;48.88
20350;BME280;10332;50.208;18.988;2023-05-23T08:28:45;97608.97;;;24.98;49.00
20350;BME280;10332;50.208;18.988;2023-05-23T08:31:13;97606.94;;;25.00;47.95
20350;BME280;10332;50.208;18.988;2023-05-23T08:33:40;97605.50;;;25.17;47.80
20350;BME280;10332;50.208;18.988;2023-05-23T08:36:09;97605.91;;;25.01;47.94
20350;BME280;10332;50.208;18.988;2023-05-23T08:38:36;97602.63;;;25.05;47.69
20350;BME280;10332;50.208;18.988;2023-05-23T08:41:21;97600.38;;;25.09;46.93
20350;BME280;10332;50.208;18.988;2023-05-23T08:43:49;97614.94;;;25.26;47.25
20350;BME280;10332;50.208;18.988;2023-05-23T08:46:17;97605.88;;;25.27;47.78
20350;BME280;10332;50.208;18.988;2023-05-23T08:48:53;97608.72;;;25.32;47.19
20350;BME280;10332;50.208;18.988;2023-05-23T08:51:25;97609.53;;;25.39;46.97
20350;BME280;10332;50.208;18.988;2023-05-23T08:53:53;97601.47;;;25.53;46.59
20350;BME280;10332;50.208;18.988;2023-05-23T08:56:23;97602.22;;;25.66;47.27
20350;BME280;10332;50.208;18.988;2023-05-23T08:58:54;97612.41;;;25.38;45.34
20350;BME280;10332;50.208;18.988;2023-05-23T09:01:23;97600.91;;;25.44;45.45
20350;BME280;10332;50.208;18.988;2023-05-23T09:03:51;97609.53;;;25.46;45.81
20350;BME280;10332;50.208;18.988;2023-05-23T09:06:20;97603.28;;;25.59;45.47
20350;BME280;10332;50.208;18.988;2023-05-23T09:08:48;97607.09;;;25.25;45.33
20350;BME280;10332;50.208;18.988;2023-05-23T09:11:16;97602.47;;;25.71;45.84
20350;BME280;10332;50.208;18.988;2023-05-23T09:13:43;97607.38;;;25.74;43.79
20350;BME280;10332;50.208;18.988;2023-05-23T09:16:11;97607.47;;;25.93;44.29
20350;BME280;10332;50.208;18.988;2023-05-23T09:18:42;97603.78;;;26.25;45.44
20350;BME280;10332;50.208;18.988;2023-05-23T09:21:11;97599.69;;;26.23;43.97
20350;BME280;10332;50.208;18.988;2023-05-23T09:23:40;97601.31;;;26.55;43.60
20350;BME280;10332;50.208;18.988;2023-05-23T09:26:10;97609.53;;;25.33;43.44
20350;BME280;10332;50.208;18.988;2023-05-23T09:28:41;97601.06;;;26.00;42.55
20350;BME280;10332;50.208;18.988;2023-05-23T09:31:09;97592.81;;;26.65;42.32
20350;BME280;10332;50.208;18.988;2023-05-23T09:33:44;97604.22;;;27.04;40.61
20350;BME280;10332;50.208;18.988;2023-05-23T09:36:13;97592.59;;;27.83;39.15
20350;BME280;10332;50.208;18.988;2023-05-23T09:38:44;97595.31;;;28.25;38.91
20350;BME280;10332;50.208;18.988;2023-05-23T09:41:12;97593.16;;;29.62;37.68
20350;BME280;10332;50.208;18.988;2023-05-23T09:43:50;97601.63;;;30.40;35.31
20350;BME280;10332;50.208;18.988;2023-05-23T09:46:20;97590.31;;;31.27;34.01
20350;BME280;10332;50.208;18.988;2023-05-23T09:48:51;97593.53;;;31.89;33.34
20350;BME280;10332;50.208;18.988;2023-05-23T09:51:22;97597.59;;;33.10;30.83
20350;BME280;10332;50.208;18.988;2023-05-23T09:53:50;97599.81;;;32.81;30.20
20350;BME280;10332;50.208;18.988;2023-05-23T09:56:19;97605.09;;;34.13;29.51
20350;BME280;10332;50.208;18.988;2023-05-23T09:58:48;97602.72;;;34.47;29.33
20350;BME280;10332;50.208;18.988;2023-05-23T10:01:16;97601.03;;;36.47;26.83
20350;BME280;10332;50.208;18.988;2023-05-23T10:03:49;97600.94;;;38.11;26.02
20350;BME280;10332;50.208;18.988;2023-05-23T10:06:33;97600.38;;;38.65;25.19
20350;BME280;10332;50.208;18.988;2023-05-23T10:09:11;97595.69;;;40.22;23.46
20350;BME280;10332;50.208;18.988;2023-05-23T10:15:04;97597.75;;;42.98;21.26
20350;BME280;10332;50.208;18.988;2023-05-23T10:20:51;97581.38;;;45.19;19.29
20350;BME280;10332;50.208;18.988;2023-05-23T10:23:20;97586.03;;;43.86;19.18
20350;BME280;10332;50.208;18.988;2023-05-23T10:25:49;97587.16;;;44.81;18.54
20350;BME280;10332;50.208;18.988;2023-05-23T10:28:18;97575.22;;;45.59;18.17
20350;BME280;10332;50.208;18.988;2023-05-23T10:30:45;97580.53;;;46.56;18.00
20350;BME280;10332;50.208;18.988;2023-05-23T10:33:14;97576.25;;;45.42;17.75
20350;BME280;10332;50.208;18.988;2023-05-23T10:36:08;97563.34;;;41.88;20.81
20350;BME280;10332;50.208;18.988;2023-05-23T10:38:57;97557.94;;;39.96;22.59
20350;BME280;10332;50.208;18.988;2023-05-23T10:41:48;97557.13;;;39.19;23.88
20350;BME280;10332;50.208;18.988;2023-05-23T10:44:29;97547.97;;;37.74;23.61
20350;BME280;10332;50.208;18.988;2023-05-23T10:47:00;97558.91;;;36.00;25.30
20350;BME280;10332;50.208;18.988;2023-05-23T10:49:45;97546.72;;;35.92;25.72
20350;BME280;10332;50.208;18.988;2023-05-23T10:52:16;97544.50;;;35.50;26.18
20350;BME280;10332;50.208;18.988;2023-05-23T10:57:21;97550.63;;;34.35;27.74
20350;BME280;10332;50.208;18.988;2023-05-23T10:59:54;97544.34;;;33.94;27.98
20350;BME280;10332;50.208;18.988;2023-05-23T11:02:27;97550.69;;;33.47;27.96
20350;BME280;10332;50.208;18.988;2023-05-23T11:08:11;97550.34;;;33.33;28.17
20350;BME280;10332;50.208;18.988;2023-05-23T11:11:02;97534.44;;;32.94;28.99
20350;BME280;10332;50.208;18.988;2023-05-23T11:16:45;97529.72;;;32.80;29.86
20350;BME280;10332;50.208;18.988;2023-05-23T11:21:52;97515.78;;;31.91;30.18
20350;BME280;10332;50.208;18.988;2023-05-23T11:24:21;97508.03;;;31.73;31.00
20350;BME280;10332;50.208;18.988;2023-05-23T11:26:53;97507.03;;;32.11;31.69
20350;BME280;10332;50.208;18.988;2023-05-23T11:29:21;97504.47;;;32.59;31.14
20350;BME280;10332;50.208;18.988;2023-05-23T11:31:48;97506.28;;;32.85;30.60
20350;BME280;10332;50.208;18.988;2023-05-23T11:34:17;97507.84;;;33.28;30.97
20350;BME280;10332;50.208;18.988;2023-05-23T11:36:45;97504.38;;;33.38;30.63
20350;BME280;10332;50.208;18.988;2023-05-23T11:39:13;97501.22;;;33.77;29.88
20350;BME280;10332;50.208;18.988;2023-05-23T11:41:41;97495.78;;;33.77;29.56
20350;BME280;10332;50.208;18.988;2023-05-23T11:44:11;97494.16;;;33.76;30.38
20350;BME280;10332;50.208;18.988;2023-05-23T11:46:39;97485.25;;;33.80;30.82
20350;BME280;10332;50.208;18.988;2023-05-23T11:49:11;97488.19;;;33.69;31.30
20350;BME280;10332;50.208;18.988;2023-05-23T11:51:39;97487.91;;;33.55;30.78
20350;BME280;10332;50.208;18.988;2023-05-23T11:54:06;97490.47;;;33.24;31.30
20350;BME280;10332;50.208;18.988;2023-05-23T11:56:39;97493.44;;;33.18;31.06
20350;BME280;10332;50.208;18.988;2023-05-23T11:59:06;97493.38;;;33.02;31.13
20350;BME280;10332;50.208;18.988;2023-05-23T12:01:36;97489.97;;;32.75;31.65
20350;BME280;10332;50.208;18.988;2023-05-23T12:04:09;97492.78;;;32.53;31.12
20350;BME280;10332;50.208;18.988;2023-05-23T12:06:41;97491.34;;;32.35;32.15
20350;BME280;10332;50.208;18.988;2023-05-23T12:09:11;97500.66;;;32.23;32.15
20350;BME280;10332;50.208;18.988;2023-05-23T12:11:41;97499.00;;;31.89;31.69
20350;BME280;10332;50.208;18.988;2023-05-23T12:14:15;97507.75;;;31.48;32.29
20350;BME280;10332;50.208;18.988;2023-05-23T12:16:44;97506.44;;;30.90;32.77
20350;BME280;10332;50.208;18.988;2023-05-23T12:19:16;97508.84;;;30.52;33.73
20350;BME280;10332;50.208;18.988;2023-05-23T12:21:47;97539.09;;;28.89;37.09
20350;BME280;10332;50.208;18.988;2023-05-23T12:24:20;97533.47;;;27.60;39.91
20350;BME280;10332;50.208;18.988;2023-05-23T12:26:58;97550.31;;;26.19;43.10
20350;BME280;10332;50.208;18.988;2023-05-23T12:29:32;97537.75;;;26.19;43.82
20350;BME280;10332;50.208;18.988;2023-05-23T12:32:03;97550.69;;;26.22;44.27
20350;BME280;10332;50.208;18.988;2023-05-23T12:34:31;97553.03;;;25.81;45.92
20350;BME280;10332;50.208;18.988;2023-05-23T12:37:00;97562.94;;;26.05;46.19
20350;BME280;10332;50.208;18.988;2023-05-23T12:39:45;97564.09;;;25.84;48.14
20350;BME280;10332;50.208;18.988;2023-05-23T12:42:13;97565.47;;;25.55;49.93
20350;BME280;10332;50.208;18.988;2023-05-23T12:44:41;97560.97;;;25.42;50.65
20350;BME280;10332;50.208;18.988;2023-05-23T12:47:12;97574.03;;;25.12;52.79
20350;BME280;10332;50.208;18.988;2023-05-23T12:49:39;97564.63;;;24.77;54.47
20350;BME280;10332;50.208;18.988;2023-05-23T12:52:07;97559.88;;;24.99;54.01
20350;BME280;10332;50.208;18.988;2023-05-23T12:54:35;97569.13;;;25.09;54.21
20350;BME280;10332;50.208;18.988;2023-05-23T12:57:02;97565.84;;;25.01;55.15
20350;BME280;10332;50.208;18.988;2023-05-23T12:59:30;97560.28;;;24.89;55.52
20350;BME280;10332;50.208;18.988;2023-05-23T13:01:57;97558.66;;;25.08;55.10
20350;BME280;10332;50.208;18.988;2023-05-23T13:04:26;97550.34;;;25.36;54.96
20350;BME280;10332;50.208;18.988;2023-05-23T13:06:58;97548.59;;;25.03;56.43
20350;BME280;10332;50.208;18.988;2023-05-23T13:09:25;97541.44;;;25.42;55.92
20350;BME280;10332;50.208;18.988;2023-05-23T13:11:53;97538.22;;;25.78;54.17
20350;BME280;10332;50.208;18.988;2023-05-23T13:14:21;97546.56;;;25.95;53.88
20350;BME280;10332;50.208;18.988;2023-05-23T13:16:48;97551.66;;;26.03;53.28
20350;BME280;10332;50.208;18.988;2023-05-23T13:19:16;97542.28;;;25.87;53.14
20350;BME280;10332;50.208;18.988;2023-05-23T13:21:44;97544.91;;;25.94;52.89
20350;BME280;10332;50.208;18.988;2023-05-23T13:24:15;97541.72;;;25.79;53.86